sensor_id;sensor_type;location;lat;lon;timestamp;P1;durP1;ratioP1;P2;durP2;ratioP2
65757;SDS011;52495;52.208;5.158;2023-02-22T00:00:24;57.95;;;23.08;;
65757;SDS011;52495;52.208;5.158;2023-02-22T00:03:06;60.03;;;24.20;;
65757;SDS011;52495;52.208;5.158;2023-02-22T00:05:36;59.47;;;23.15;;
65757;SDS011;52495;52.208;5.158;2023-02-22T00:08:04;53.23;;;21.40;;
65757;SDS011;52495;52.208;5.158;2023-02-22T00:10:33;53.63;;;23.40;;
65757;SDS011;52495;52.208;5.158;2023-02-22T00:13:03;57.20;;;23.40;;
65757;SDS011;52495;52.208;5.158;2023-02-22T00:15:31;50.90;;;23.95;;
65757;SDS011;52495;52.208;5.158;2023-02-22T00:17:58;52.92;;;22.95;;
65757;SDS011;52495;52.208;5.158;2023-02-22T00:20:28;56.15;;;24.27;;
65757;SDS011;52495;52.208;5.158;2023-02-22T00:22:55;55.50;;;23.98;;
65757;SDS011;52495;52.208;5.158;2023-02-22T00:25:25;52.25;;;23.02;;
65757;SDS011;52495;52.208;5.158;2023-02-22T00:27:52;51.20;;;22.40;;
65757;SDS011;52495;52.208;5.158;2023-02-22T00:30:21;46.20;;;21.38;;
65757;SDS011;52495;52.208;5.158;2023-02-22T00:32:52;45.70;;;21.10;;
65757;SDS011;52495;52.208;5.158;2023-02-22T00:35:20;52.40;;;23.55;;
65757;SDS011;52495;52.208;5.158;2023-02-22T00:37:50;52.05;;;23.88;;
65757;SDS011;52495;52.208;5.158;2023-02-22T00:40:19;48.45;;;22.80;;
65757;SDS011;52495;52.208;5.158;2023-02-22T00:42:47;51.53;;;22.50;;
65757;SDS011;52495;52.208;5.158;2023-02-22T00:45:16;46.42;;;23.33;;
65757;SDS011;52495;52.208;5.158;2023-02-22T00:47:44;45.95;;;21.02;;
65757;SDS011;52495;52.208;5.158;2023-02-22T00:50:13;48.40;;;22.75;;
65757;SDS011;52495;52.208;5.158;2023-02-22T00:52:41;45.90;;;22.02;;
65757;SDS011;52495;52.208;5.158;2023-02-22T00:55:14;43.85;;;23.15;;
65757;SDS011;52495;52.208;5.158;2023-02-22T00:57:42;50.97;;;23.40;;
65757;SDS011;52495;52.208;5.158;2023-02-22T01:00:13;49.33;;;24.75;;
65757;SDS011;52495;52.208;5.158;2023-02-22T01:02:43;47.00;;;23.35;;
65757;SDS011;52495;52.208;5.158;2023-02-22T01:05:14;45.28;;;22.38;;
65757;SDS011;52495;52.208;5.158;2023-02-22T01:07:41;47.67;;;23.25;;
65757;SDS011;52495;52.208;5.158;2023-02-22T01:10:09;47.00;;;23.48;;
65757;SDS011;52495;52.208;5.158;2023-02-22T01:12:37;45.38;;;23.40;;
65757;SDS011;52495;52.208;5.158;2023-02-22T01:15:04;44.10;;;22.77;;
65757;SDS011;52495;52.208;5.158;2023-02-22T01:17:35;48.92;;;23.83;;
65757;SDS011;52495;52.208;5.158;2023-02-22T01:20:03;45.42;;;22.98;;
65757;SDS011;52495;52.208;5.158;2023-02-22T01:22:34;48.00;;;22.67;;
65757;SDS011;52495;52.208;5.158;2023-02-22T01:25:02;45.28;;;24.02;;
65757;SDS011;52495;52.208;5.158;2023-02-22T01:27:33;45.45;;;23.13;;
65757;SDS011;52495;52.208;5.158;2023-02-22T01:30:00;38.55;;;20.00;;
65757;SDS011;52495;52.208;5.158;2023-02-22T01:35:01;47.22;;;22.40;;
65757;SDS011;52495;52.208;5.158;2023-02-22T01:37:29;43.17;;;21.45;;
65757;SDS011;52495;52.208;5.158;2023-02-22T01:39:56;42.25;;;21.92;;
65757;SDS011;52495;52.208;5.158;2023-02-22T01:42:26;46.10;;;22.65;;
65757;SDS011;52495;52.208;5.158;2023-02-22T01:48:07;45.97;;;22.25;;
65757;SDS011;52495;52.208;5.158;2023-02-22T01:50:38;43.33;;;22.77;;
65757;SDS011;52495;52.208;5.158;2023-02-22T01:53:08;43.80;;;21.80;;
65757;SDS011;52495;52.208;5.158;2023-02-22T01:55:37;42.65;;;21.17;;
65757;SDS011;52495;52.208;5.158;2023-02-22T01:58:04;41.58;;;22.35;;
65757;SDS011;52495;52.208;5.158;2023-02-22T02:00:32;39.15;;;21.23;;
65757;SDS011;52495;52.208;5.158;2023-02-22T02:03:01;43.65;;;23.13;;
65757;SDS011;52495;52.208;5.158;2023-02-22T02:05:31;47.60;;;23.08;;
65757;SDS011;52495;52.208;5.158;2023-02-22T02:08:04;41.83;;;22.55;;
65757;SDS011;52495;52.208;5.158;2023-02-22T02:10:37;45.05;;;23.00;;
65757;SDS011;52495;52.208;5.158;2023-02-22T02:13:05;40.05;;;20.25;;
65757;SDS011;52495;52.208;5.158;2023-02-22T02:15:34;43.75;;;22.50;;
65757;SDS011;52495;52.208;5.158;2023-02-22T02:18:04;44.08;;;23.50;;
65757;SDS011;52495;52.208;5.158;2023-02-22T02:20:35;42.65;;;22.85;;
65757;SDS011;52495;52.208;5.158;2023-02-22T02:23:10;42.15;;;21.92;;
65757;SDS011;52495;52.208;5.158;2023-02-22T02:28:41;43.35;;;22.20;;
65757;SDS011;52495;52.208;5.158;2023-02-22T02:31:54;41.72;;;20.90;;
65757;SDS011;52495;52.208;5.158;2023-02-22T02:34:38;44.28;;;22.98;;
65757;SDS011;52495;52.208;5.158;2023-02-22T02:37:15;42.90;;;22.73;;
65757;SDS011;52495;52.208;5.158;2023-02-22T02:39:47;46.08;;;23.67;;
65757;SDS011;52495;52.208;5.158;2023-02-22T02:42:19;41.72;;;21.67;;
65757;SDS011;52495;52.208;5.158;2023-02-22T02:44:50;39.42;;;20.20;;
65757;SDS011;52495;52.208;5.158;2023-02-22T02:47:23;40.80;;;21.33;;
65757;SDS011;52495;52.208;5.158;2023-02-22T02:49:55;43.20;;;23.17;;
65757;SDS011;52495;52.208;5.158;2023-02-22T02:52:26;37.60;;;21.13;;
65757;SDS011;52495;52.208;5.158;2023-02-22T02:54:54;41.35;;;21.95;;
65757;SDS011;52495;52.208;5.158;2023-02-22T02:57:22;38.60;;;21.70;;
65757;SDS011;52495;52.208;5.158;2023-02-22T02:59:50;41.15;;;21.27;;
65757;SDS011;52495;52.208;5.158;2023-02-22T03:02:21;41.67;;;21.90;;
65757;SDS011;52495;52.208;5.158;2023-02-22T03:05:06;40.80;;;21.88;;
65757;SDS011;52495;52.208;5.158;2023-02-22T03:07:46;41.25;;;22.75;;
65757;SDS011;52495;52.208;5.158;2023-02-22T03:10:20;38.13;;;20.92;;
65757;SDS011;52495;52.208;5.158;2023-02-22T03:12:56;41.58;;;21.63;;
65757;SDS011;52495;52.208;5.158;2023-02-22T03:15:34;43.75;;;21.90;;
65757;SDS011;52495;52.208;5.158;2023-02-22T03:18:12;38.60;;;21.17;;
65757;SDS011;52495;52.208;5.158;2023-02-22T03:20:49;44.90;;;22.73;;
65757;SDS011;52495;52.208;5.158;2023-02-22T03:23:21;42.28;;;21.65;;
65757;SDS011;52495;52.208;5.158;2023-02-22T03:25:56;42.67;;;20.95;;
65757;SDS011;52495;52.208;5.158;2023-02-22T03:28:28;36.80;;;21.65;;
65757;SDS011;52495;52.208;5.158;2023-02-22T03:30:59;41.50;;;21.38;;
65757;SDS011;52495;52.208;5.158;2023-02-22T03:33:31;38.92;;;19.63;;
65757;SDS011;52495;52.208;5.158;2023-02-22T03:36:05;39.42;;;19.95;;
65757;SDS011;52495;52.208;5.158;2023-02-22T03:38:39;40.63;;;21.92;;
65757;SDS011;52495;52.208;5.158;2023-02-22T03:41:10;44.63;;;23.38;;
65757;SDS011;52495;52.208;5.158;2023-02-22T03:43:43;42.00;;;20.98;;
65757;SDS011;52495;52.208;5.158;2023-02-22T03:46:14;40.58;;;21.27;;
65757;SDS011;52495;52.208;5.158;2023-02-22T03:48:46;39.13;;;20.90;;
65757;SDS011;52495;52.208;5.158;2023-02-22T03:51:18;41.65;;;21.85;;
65757;SDS011;52495;52.208;5.158;2023-02-22T03:53:49;41.85;;;22.17;;
65757;SDS011;52495;52.208;5.158;2023-02-22T03:56:22;42.55;;;22.63;;
65757;SDS011;52495;52.208;5.158;2023-02-22T03:59:00;45.70;;;21.80;;
65757;SDS011;52495;52.208;5.158;2023-02-22T04:01:28;40.38;;;20.10;;
65757;SDS011;52495;52.208;5.158;2023-02-22T04:03:56;40.58;;;20.50;;
65757;SDS011;52495;52.208;5.158;2023-02-22T04:06:24;39.60;;;20.02;;
65757;SDS011;52495;52.208;5.158;2023-02-22T04:08:52;43.28;;;21.45;;
65757;SDS011;52495;52.208;5.158;2023-02-22T04:11:20;41.50;;;20.83;;
65757;SDS011;52495;52.208;5.158;2023-02-22T04:13:48;40.78;;;21.08;;
65757;SDS011;52495;52.208;5.158;2023-02-22T04:16:15;41.75;;;21.83;;
65757;SDS011;52495;52.208;5.158;2023-02-22T04:18:42;42.53;;;21.90;;
65757;SDS011;52495;52.208;5.158;2023-02-22T04:21:12;40.05;;;20.42;;
65757;SDS011;52495;52.208;5.158;2023-02-22T04:26:10;44.97;;;21.23;;
65757;SDS011;52495;52.208;5.158;2023-02-22T04:28:37;45.35;;;20.67;;
65757;SDS011;52495;52.208;5.158;2023-02-22T04:31:08;41.80;;;22.17;;
65757;SDS011;52495;52.208;5.158;2023-02-22T04:33:36;45.65;;;22.05;;
65757;SDS011;52495;52.208;5.158;2023-02-22T04:36:03;48.45;;;22.92;;
65757;SDS011;52495;52.208;5.158;2023-02-22T04:38:34;43.63;;;21.63;;
65757;SDS011;52495;52.208;5.158;2023-02-22T04:41:00;48.28;;;22.73;;
65757;SDS011;52495;52.208;5.158;2023-02-22T04:43:27;48.72;;;22.60;;
65757;SDS011;52495;52.208;5.158;2023-02-22T04:46:02;49.30;;;22.52;;
65757;SDS011;52495;52.208;5.158;2023-02-22T04:48:29;44.35;;;22.77;;
65757;SDS011;52495;52.208;5.158;2023-02-22T04:50:56;46.05;;;22.35;;
65757;SDS011;52495;52.208;5.158;2023-02-22T04:53:23;46.15;;;23.02;;
65757;SDS011;52495;52.208;5.158;2023-02-22T04:55:51;46.10;;;23.55;;
65757;SDS011;52495;52.208;5.158;2023-02-22T04:58:18;47.03;;;23.67;;
65757;SDS011;52495;52.208;5.158;2023-02-22T05:00:46;47.85;;;23.38;;
65757;SDS011;52495;52.208;5.158;2023-02-22T05:03:14;51.70;;;24.98;;
65757;SDS011;52495;52.208;5.158;2023-02-22T05:05:40;47.60;;;23.02;;
65757;SDS011;52495;52.208;5.158;2023-02-22T05:08:07;50.25;;;23.83;;
65757;SDS011;52495;52.208;5.158;2023-02-22T05:10:34;47.85;;;22.60;;
65757;SDS011;52495;52.208;5.158;2023-02-22T05:13:03;47.08;;;22.88;;
65757;SDS011;52495;52.208;5.158;2023-02-22T05:15:30;41.70;;;20.92;;
65757;SDS011;52495;52.208;5.158;2023-02-22T05:17:57;52.55;;;24.05;;
65757;SDS011;52495;52.208;5.158;2023-02-22T05:20:25;48.70;;;23.92;;
65757;SDS011;52495;52.208;5.158;2023-02-22T05:22:53;51.95;;;25.35;;
65757;SDS011;52495;52.208;5.158;2023-02-22T05:25:20;48.60;;;23.70;;
65757;SDS011;52495;52.208;5.158;2023-02-22T05:27:48;48.65;;;22.88;;
65757;SDS011;52495;52.208;5.158;2023-02-22T05:30:17;51.40;;;25.25;;
65757;SDS011;52495;52.208;5.158;2023-02-22T05:32:49;49.88;;;23.52;;
65757;SDS011;52495;52.208;5.158;2023-02-22T05:35:16;46.65;;;22.42;;
65757;SDS011;52495;52.208;5.158;2023-02-22T05:37:43;51.58;;;24.38;;
65757;SDS011;52495;52.208;5.158;2023-02-22T05:40:11;53.30;;;25.05;;
65757;SDS011;52495;52.208;5.158;2023-02-22T05:42:39;51.63;;;23.73;;
65757;SDS011;52495;52.208;5.158;2023-02-22T05:45:06;46.55;;;22.85;;
65757;SDS011;52495;52.208;5.158;2023-02-22T05:47:35;46.72;;;21.60;;
65757;SDS011;52495;52.208;5.158;2023-02-22T05:50:02;49.47;;;23.85;;
65757;SDS011;52495;52.208;5.158;2023-02-22T05:52:29;52.92;;;23.67;;
65757;SDS011;52495;52.208;5.158;2023-02-22T05:54:56;50.13;;;23.05;;
65757;SDS011;52495;52.208;5.158;2023-02-22T05:57:22;49.78;;;24.73;;
65757;SDS011;52495;52.208;5.158;2023-02-22T05:59:49;52.85;;;24.35;;
65757;SDS011;52495;52.208;5.158;2023-02-22T06:02:16;47.97;;;22.98;;
65757;SDS011;52495;52.208;5.158;2023-02-22T06:04:44;50.60;;;23.45;;
65757;SDS011;52495;52.208;5.158;2023-02-22T06:07:12;45.95;;;21.05;;
65757;SDS011;52495;52.208;5.158;2023-02-22T06:09:41;49.85;;;22.67;;
65757;SDS011;52495;52.208;5.158;2023-02-22T06:12:08;48.72;;;22.80;;
65757;SDS011;52495;52.208;5.158;2023-02-22T06:14:35;56.53;;;24.33;;
65757;SDS011;52495;52.208;5.158;2023-02-22T06:17:02;51.75;;;24.77;;
65757;SDS011;52495;52.208;5.158;2023-02-22T06:19:30;51.85;;;24.02;;
65757;SDS011;52495;52.208;5.158;2023-02-22T06:21:58;54.72;;;25.52;;
65757;SDS011;52495;52.208;5.158;2023-02-22T06:24:30;53.63;;;23.92;;
65757;SDS011;52495;52.208;5.158;2023-02-22T06:26:58;54.30;;;25.65;;
65757;SDS011;52495;52.208;5.158;2023-02-22T06:29:26;54.80;;;24.92;;
65757;SDS011;52495;52.208;5.158;2023-02-22T06:31:54;52.83;;;25.70;;
65757;SDS011;52495;52.208;5.158;2023-02-22T06:34:21;52.70;;;23.75;;
65757;SDS011;52495;52.208;5.158;2023-02-22T06:36:48;59.50;;;25.58;;
65757;SDS011;52495;52.208;5.158;2023-02-22T06:39:16;54.85;;;24.20;;
65757;SDS011;52495;52.208;5.158;2023-02-22T06:41:44;53.85;;;23.05;;
65757;SDS011;52495;52.208;5.158;2023-02-22T06:44:12;49.78;;;23.50;;
65757;SDS011;52495;52.208;5.158;2023-02-22T06:46:45;60.53;;;25.38;;
65757;SDS011;52495;52.208;5.158;2023-02-22T06:49:15;52.42;;;24.80;;
65757;SDS011;52495;52.208;5.158;2023-02-22T06:51:42;51.75;;;22.02;;
65757;SDS011;52495;52.208;5.158;2023-02-22T06:54:09;51.90;;;23.67;;
65757;SDS011;52495;52.208;5.158;2023-02-22T06:56:37;50.15;;;21.52;;
65757;SDS011;52495;52.208;5.158;2023-02-22T06:59:04;52.97;;;22.50;;
65757;SDS011;52495;52.208;5.158;2023-02-22T07:01:30;51.00;;;23.80;;
65757;SDS011;52495;52.208;5.158;2023-02-22T07:03:57;51.08;;;23.15;;
65757;SDS011;52495;52.208;5.158;2023-02-22T07:06:24;54.38;;;23.17;;
65757;SDS011;52495;52.208;5.158;2023-02-22T07:08:51;59.85;;;25.55;;
65757;SDS011;52495;52.208;5.158;2023-02-22T07:11:18;55.50;;;25.35;;
65757;SDS011;52495;52.208;5.158;2023-02-22T07:13:47;60.42;;;25.83;;
65757;SDS011;52495;52.208;5.158;2023-02-22T07:16:13;60.20;;;24.25;;
65757;SDS011;52495;52.208;5.158;2023-02-22T07:18:40;57.67;;;24.23;;
65757;SDS011;52495;52.208;5.158;2023-02-22T07:21:07;60.38;;;23.92;;
65757;SDS011;52495;52.208;5.158;2023-02-22T07:23:33;54.05;;;24.13;;
65757;SDS011;52495;52.208;5.158;2023-02-22T07:26:00;56.20;;;23.70;;
65757;SDS011;52495;52.208;5.158;2023-02-22T07:28:29;52.17;;;23.45;;
65757;SDS011;52495;52.208;5.158;2023-02-22T07:30:57;51.75;;;23.02;;
65757;SDS011;52495;52.208;5.158;2023-02-22T07:33:25;55.90;;;23.95;;
65757;SDS011;52495;52.208;5.158;2023-02-22T07:35:52;59.25;;;24.35;;
65757;SDS011;52495;52.208;5.158;2023-02-22T07:38:19;56.95;;;23.90;;
65757;SDS011;52495;52.208;5.158;2023-02-22T07:40:45;56.85;;;23.88;;
65757;SDS011;52495;52.208;5.158;2023-02-22T07:43:13;55.17;;;23.38;;
65757;SDS011;52495;52.208;5.158;2023-02-22T07:45:42;58.63;;;25.88;;
65757;SDS011;52495;52.208;5.158;2023-02-22T07:48:10;59.58;;;25.33;;
65757;SDS011;52495;52.208;5.158;2023-02-22T07:50:38;56.95;;;23.30;;
65757;SDS011;52495;52.208;5.158;2023-02-22T07:53:06;59.17;;;25.05;;
65757;SDS011;52495;52.208;5.158;2023-02-22T07:55:36;64.80;;;26.92;;
65757;SDS011;52495;52.208;5.158;2023-02-22T07:58:04;61.90;;;25.38;;
65757;SDS011;52495;52.208;5.158;2023-02-22T08:00:33;56.25;;;24.17;;
65757;SDS011;52495;52.208;5.158;2023-02-22T08:03:02;60.03;;;25.75;;
65757;SDS011;52495;52.208;5.158;2023-02-22T08:05:33;59.88;;;25.38;;
65757;SDS011;52495;52.208;5.158;2023-02-22T08:08:01;60.15;;;24.90;;
65757;SDS011;52495;52.208;5.158;2023-02-22T08:10:28;61.72;;;26.58;;
65757;SDS011;52495;52.208;5.158;2023-02-22T08:12:56;56.35;;;24.70;;
65757;SDS011;52495;52.208;5.158;2023-02-22T08:15:24;55.88;;;24.08;;
65757;SDS011;52495;52.208;5.158;2023-02-22T08:17:53;53.33;;;24.33;;
65757;SDS011;52495;52.208;5.158;2023-02-22T08:20:20;55.67;;;24.60;;
65757;SDS011;52495;52.208;5.158;2023-02-22T08:22:49;52.95;;;23.58;;
65757;SDS011;52495;52.208;5.158;2023-02-22T08:25:17;53.22;;;25.05;;
65757;SDS011;52495;52.208;5.158;2023-02-22T08:27:45;46.75;;;21.98;;
65757;SDS011;52495;52.208;5.158;2023-02-22T08:30:13;53.38;;;23.48;;
65757;SDS011;52495;52.208;5.158;2023-02-22T08:32:41;47.03;;;22.00;;
65757;SDS011;52495;52.208;5.158;2023-02-22T08:35:07;47.88;;;22.98;;
65757;SDS011;52495;52.208;5.158;2023-02-22T08:37:34;46.75;;;22.70;;
65757;SDS011;52495;52.208;5.158;2023-02-22T08:40:02;53.60;;;23.70;;
65757;SDS011;52495;52.208;5.158;2023-02-22T08:42:29;44.70;;;19.73;;
65757;SDS011;52495;52.208;5.158;2023-02-22T08:44:56;49.03;;;23.55;;
65757;SDS011;52495;52.208;5.158;2023-02-22T08:47:23;43.33;;;21.55;;
65757;SDS011;52495;52.208;5.158;2023-02-22T08:49:50;44.25;;;20.92;;
65757;SDS011;52495;52.208;5.158;2023-02-22T08:52:18;37.97;;;17.92;;
65757;SDS011;52495;52.208;5.158;2023-02-22T08:54:45;46.40;;;22.23;;
65757;SDS011;52495;52.208;5.158;2023-02-22T08:57:13;50.60;;;23.77;;
65757;SDS011;52495;52.208;5.158;2023-02-22T08:59:40;48.15;;;22.45;;
65757;SDS011;52495;52.208;5.158;2023-02-22T09:02:09;45.05;;;21.42;;
65757;SDS011;52495;52.208;5.158;2023-02-22T09:04:39;44.33;;;22.50;;
65757;SDS011;52495;52.208;5.158;2023-02-22T09:07:06;43.78;;;20.73;;
65757;SDS011;52495;52.208;5.158;2023-02-22T09:09:33;47.17;;;22.75;;
65757;SDS011;52495;52.208;5.158;2023-02-22T09:12:00;41.22;;;21.08;;
65757;SDS011;52495;52.208;5.158;2023-02-22T09:14:28;41.83;;;21.27;;
65757;SDS011;52495;52.208;5.158;2023-02-22T09:16:55;39.13;;;19.63;;
65757;SDS011;52495;52.208;5.158;2023-02-22T09:19:21;42.03;;;21.15;;
65757;SDS011;52495;52.208;5.158;2023-02-22T09:21:51;42.47;;;20.98;;
65757;SDS011;52495;52.208;5.158;2023-02-22T09:24:18;37.85;;;19.95;;
65757;SDS011;52495;52.208;5.158;2023-02-22T09:26:45;40.67;;;20.90;;
65757;SDS011;52495;52.208;5.158;2023-02-22T09:29:17;41.92;;;21.10;;
65757;SDS011;52495;52.208;5.158;2023-02-22T09:31:48;33.67;;;16.73;;
65757;SDS011;52495;52.208;5.158;2023-02-22T09:34:15;43.05;;;21.10;;
65757;SDS011;52495;52.208;5.158;2023-02-22T09:36:44;37.95;;;19.67;;
65757;SDS011;52495;52.208;5.158;2023-02-22T09:39:12;36.65;;;18.95;;
65757;SDS011;52495;52.208;5.158;2023-02-22T09:41:41;34.10;;;19.00;;
65757;SDS011;52495;52.208;5.158;2023-02-22T09:46:43;37.42;;;18.67;;
65757;SDS011;52495;52.208;5.158;2023-02-22T09:49:19;39.10;;;19.67;;
65757;SDS011;52495;52.208;5.158;2023-02-22T09:51:51;28.85;;;16.40;;
65757;SDS011;52495;52.208;5.158;2023-02-22T09:54:25;35.58;;;19.25;;
65757;SDS011;52495;52.208;5.158;2023-02-22T09:56:59;35.00;;;18.17;;
65757;SDS011;52495;52.208;5.158;2023-02-22T09:59:29;36.90;;;20.02;;
65757;SDS011;52495;52.208;5.158;2023-02-22T10:02:01;35.50;;;19.35;;
65757;SDS011;52495;52.208;5.158;2023-02-22T10:04:41;32.20;;;19.23;;
65757;SDS011;52495;52.208;5.158;2023-02-22T10:07:14;32.92;;;18.40;;
65757;SDS011;52495;52.208;5.158;2023-02-22T10:09:46;31.92;;;18.48;;
65757;SDS011;52495;52.208;5.158;2023-02-22T10:12:16;33.83;;;18.25;;
65757;SDS011;52495;52.208;5.158;2023-02-22T10:14:52;31.98;;;17.67;;
65757;SDS011;52495;52.208;5.158;2023-02-22T10:17:43;29.90;;;17.23;;
65757;SDS011;52495;52.208;5.158;2023-02-22T10:20:28;31.55;;;18.00;;
65757;SDS011;52495;52.208;5.158;2023-02-22T10:23:10;33.08;;;18.23;;
65757;SDS011;52495;52.208;5.158;2023-02-22T10:25:44;29.27;;;16.58;;
65757;SDS011;52495;52.208;5.158;2023-02-22T10:28:18;30.73;;;17.20;;
65757;SDS011;52495;52.208;5.158;2023-02-22T10:30:50;29.50;;;16.73;;
65757;SDS011;52495;52.208;5.158;2023-02-22T10:33:21;30.73;;;17.08;;
65757;SDS011;52495;52.208;5.158;2023-02-22T10:35:52;29.73;;;16.40;;
65757;SDS011;52495;52.208;5.158;2023-02-22T10:38:21;30.27;;;16.35;;
65757;SDS011;52495;52.208;5.158;2023-02-22T10:40:49;27.27;;;16.13;;
65757;SDS011;52495;52.208;5.158;2023-02-22T10:43:22;29.67;;;18.15;;
65757;SDS011;52495;52.208;5.158;2023-02-22T10:45:50;28.65;;;16.63;;
65757;SDS011;52495;52.208;5.158;2023-02-22T10:48:20;29.48;;;16.90;;
65757;SDS011;52495;52.208;5.158;2023-02-22T10:50:51;28.88;;;16.40;;
65757;SDS011;52495;52.208;5.158;2023-02-22T10:53:25;27.25;;;16.58;;
65757;SDS011;52495;52.208;5.158;2023-02-22T10:56:09;28.43;;;17.03;;
65757;SDS011;52495;52.208;5.158;2023-02-22T10:58:42;27.35;;;16.60;;
65757;SDS011;52495;52.208;5.158;2023-02-22T11:01:22;28.08;;;16.52;;
65757;SDS011;52495;52.208;5.158;2023-02-22T11:03:55;27.02;;;15.45;;
65757;SDS011;52495;52.208;5.158;2023-02-22T11:06:30;32.85;;;17.05;;
65757;SDS011;52495;52.208;5.158;2023-02-22T11:09:05;28.27;;;17.10;;
65757;SDS011;52495;52.208;5.158;2023-02-22T11:11:35;27.58;;;15.48;;
65757;SDS011;52495;52.208;5.158;2023-02-22T11:14:04;29.50;;;16.33;;
65757;SDS011;52495;52.208;5.158;2023-02-22T11:16:35;28.77;;;17.05;;
65757;SDS011;52495;52.208;5.158;2023-02-22T11:19:07;29.75;;;16.40;;
65757;SDS011;52495;52.208;5.158;2023-02-22T11:21:44;29.10;;;17.05;;
65757;SDS011;52495;52.208;5.158;2023-02-22T11:24:11;31.30;;;17.90;;
65757;SDS011;52495;52.208;5.158;2023-02-22T11:26:41;31.10;;;17.23;;
65757;SDS011;52495;52.208;5.158;2023-02-22T11:29:10;28.30;;;17.83;;
65757;SDS011;52495;52.208;5.158;2023-02-22T11:31:44;35.38;;;18.77;;
65757;SDS011;52495;52.208;5.158;2023-02-22T11:34:32;33.72;;;18.83;;
65757;SDS011;52495;52.208;5.158;2023-02-22T11:37:16;35.47;;;18.35;;
65757;SDS011;52495;52.208;5.158;2023-02-22T11:40:05;34.75;;;19.10;;
65757;SDS011;52495;52.208;5.158;2023-02-22T11:42:39;34.40;;;19.08;;
65757;SDS011;52495;52.208;5.158;2023-02-22T11:45:07;30.60;;;17.40;;
65757;SDS011;52495;52.208;5.158;2023-02-22T11:47:44;34.65;;;18.13;;
65757;SDS011;52495;52.208;5.158;2023-02-22T11:50:20;34.25;;;18.65;;
65757;SDS011;52495;52.208;5.158;2023-02-22T11:55:49;31.35;;;17.73;;
65757;SDS011;52495;52.208;5.158;2023-02-22T11:58:26;31.83;;;18.33;;
65757;SDS011;52495;52.208;5.158;2023-02-22T12:01:02;30.92;;;18.15;;
65757;SDS011;52495;52.208;5.158;2023-02-22T12:03:39;29.90;;;17.65;;
65757;SDS011;52495;52.208;5.158;2023-02-22T12:06:27;31.75;;;17.83;;
65757;SDS011;52495;52.208;5.158;2023-02-22T12:09:08;32.35;;;18.52;;
65757;SDS011;52495;52.208;5.158;2023-02-22T12:11:43;33.75;;;19.30;;
65757;SDS011;52495;52.208;5.158;2023-02-22T12:14:23;31.90;;;17.77;;
65757;SDS011;52495;52.208;5.158;2023-02-22T12:17:07;33.22;;;19.58;;
65757;SDS011;52495;52.208;5.158;2023-02-22T12:19:45;30.52;;;18.15;;
65757;SDS011;52495;52.208;5.158;2023-02-22T12:22:16;33.60;;;18.95;;
65757;SDS011;52495;52.208;5.158;2023-02-22T12:24:48;32.40;;;18.10;;
65757;SDS011;52495;52.208;5.158;2023-02-22T12:27:22;34.28;;;18.30;;
65757;SDS011;52495;52.208;5.158;2023-02-22T12:29:53;32.05;;;17.52;;
65757;SDS011;52495;52.208;5.158;2023-02-22T12:32:27;35.20;;;19.55;;
65757;SDS011;52495;52.208;5.158;2023-02-22T12:35:00;30.45;;;18.38;;
65757;SDS011;52495;52.208;5.158;2023-02-22T12:37:34;31.98;;;18.30;;
65757;SDS011;52495;52.208;5.158;2023-02-22T12:40:12;30.83;;;17.77;;
65757;SDS011;52495;52.208;5.158;2023-02-22T12:42:49;28.98;;;18.20;;
65757;SDS011;52495;52.208;5.158;2023-02-22T12:45:24;30.88;;;18.92;;
65757;SDS011;52495;52.208;5.158;2023-02-22T12:47:58;29.83;;;17.63;;
65757;SDS011;52495;52.208;5.158;2023-02-22T12:50:42;30.90;;;18.60;;
65757;SDS011;52495;52.208;5.158;2023-02-22T12:53:13;32.75;;;18.15;;
65757;SDS011;52495;52.208;5.158;2023-02-22T12:55:46;32.42;;;17.77;;
65757;SDS011;52495;52.208;5.158;2023-02-22T12:58:19;32.72;;;18.42;;
65757;SDS011;52495;52.208;5.158;2023-02-22T13:00:54;30.30;;;18.13;;
65757;SDS011;52495;52.208;5.158;2023-02-22T13:03:30;31.40;;;17.90;;
65757;SDS011;52495;52.208;5.158;2023-02-22T13:06:04;32.53;;;18.83;;
65757;SDS011;52495;52.208;5.158;2023-02-22T13:08:55;30.40;;;17.90;;
65757;SDS011;52495;52.208;5.158;2023-02-22T13:11:34;31.27;;;17.90;;
65757;SDS011;52495;52.208;5.158;2023-02-22T13:14:28;32.42;;;19.10;;
65757;SDS011;52495;52.208;5.158;2023-02-22T13:17:05;35.58;;;18.83;;
65757;SDS011;52495;52.208;5.158;2023-02-22T13:19:40;30.27;;;18.02;;
65757;SDS011;52495;52.208;5.158;2023-02-22T13:22:13;32.33;;;19.52;;
65757;SDS011;52495;52.208;5.158;2023-02-22T13:24:47;33.27;;;19.20;;
65757;SDS011;52495;52.208;5.158;2023-02-22T13:27:25;29.30;;;18.10;;
65757;SDS011;52495;52.208;5.158;2023-02-22T13:32:26;33.03;;;17.92;;
65757;SDS011;52495;52.208;5.158;2023-02-22T13:38:09;29.58;;;17.95;;
65757;SDS011;52495;52.208;5.158;2023-02-22T13:41:15;30.60;;;18.33;;
65757;SDS011;52495;52.208;5.158;2023-02-22T13:43:59;30.00;;;18.30;;
65757;SDS011;52495;52.208;5.158;2023-02-22T13:46:58;34.60;;;18.45;;
65757;SDS011;52495;52.208;5.158;2023-02-22T13:52:50;30.92;;;18.75;;
65757;SDS011;52495;52.208;5.158;2023-02-22T13:55:23;34.30;;;18.83;;
65757;SDS011;52495;52.208;5.158;2023-02-22T13:57:58;32.90;;;18.92;;
65757;SDS011;52495;52.208;5.158;2023-02-22T14:00:45;33.40;;;19.08;;
65757;SDS011;52495;52.208;5.158;2023-02-22T14:03:32;30.92;;;18.10;;
65757;SDS011;52495;52.208;5.158;2023-02-22T14:06:05;32.80;;;18.83;;
65757;SDS011;52495;52.208;5.158;2023-02-22T14:08:45;32.20;;;18.77;;
65757;SDS011;52495;52.208;5.158;2023-02-22T14:14:20;27.52;;;18.00;;
65757;SDS011;52495;52.208;5.158;2023-02-22T14:20:05;34.20;;;18.92;;
65757;SDS011;52495;52.208;5.158;2023-02-22T14:22:46;32.08;;;18.52;;
65757;SDS011;52495;52.208;5.158;2023-02-22T14:25:31;31.67;;;18.73;;
65757;SDS011;52495;52.208;5.158;2023-02-22T14:28:03;30.77;;;18.98;;
65757;SDS011;52495;52.208;5.158;2023-02-22T14:30:35;31.63;;;17.83;;
65757;SDS011;52495;52.208;5.158;2023-02-22T14:36:05;28.10;;;17.25;;
65757;SDS011;52495;52.208;5.158;2023-02-22T14:38:32;31.23;;;17.98;;
65757;SDS011;52495;52.208;5.158;2023-02-22T14:41:00;31.17;;;18.15;;
65757;SDS011;52495;52.208;5.158;2023-02-22T14:43:28;29.52;;;18.20;;
65757;SDS011;52495;52.208;5.158;2023-02-22T14:45:56;26.42;;;17.30;;
65757;SDS011;52495;52.208;5.158;2023-02-22T14:48:29;28.23;;;18.10;;
65757;SDS011;52495;52.208;5.158;2023-02-22T14:51:04;31.70;;;18.08;;
65757;SDS011;52495;52.208;5.158;2023-02-22T14:53:39;29.45;;;20.00;;
65757;SDS011;52495;52.208;5.158;2023-02-22T14:56:13;27.60;;;17.25;;
65757;SDS011;52495;52.208;5.158;2023-02-22T14:58:45;29.27;;;18.23;;
65757;SDS011;52495;52.208;5.158;2023-02-22T15:01:24;50.08;;;30.98;;
65757;SDS011;52495;52.208;5.158;2023-02-22T15:03:54;29.20;;;17.65;;
65757;SDS011;52495;52.208;5.158;2023-02-22T15:06:25;31.25;;;19.67;;
65757;SDS011;52495;52.208;5.158;2023-02-22T15:09:06;26.30;;;16.60;;
65757;SDS011;52495;52.208;5.158;2023-02-22T15:11:36;28.00;;;17.20;;
65757;SDS011;52495;52.208;5.158;2023-02-22T15:14:12;30.33;;;18.05;;
65757;SDS011;52495;52.208;5.158;2023-02-22T15:16:42;32.92;;;17.92;;
65757;SDS011;52495;52.208;5.158;2023-02-22T15:19:14;26.23;;;16.73;;